Barranca, New Mexico
Current Conditions -  °F | °C
As of 9:55 PM on Sunday 21 Dec 2014 (Local Time) from KLAM Reporting Station
Clear Clear  
Wind Chill: 36°   Ceiling: Unl
Heat Index: 42°   Visibility: 10mi
Dew Point: 29°   Wind: 12mph
Humidity: 60%   Direction: 330°NNW
Pressure: 29.86"   Gusts: 25mph
Location:  36.1557°N, 106.238°W
Report Text: KLAM 220455Z AUTO 33010G22KT 170V070 10SM CLR 06/M02 A2986 RMK AO2 T00561017
Loading
Personal Weather Stations






























Interactive Weather Map New forecast layout! Learn more

10-Day Weather Forecast

Advertisements
Track Severe Weather on mobile